A39 weather

Ak-Chin Regional Airport
Maricopa, Arizona, United States

Public forecast

Using degrees Fahrenheit for public forecast. Weather courtesy of forecast.io.

Closest aviation weather report (METAR) to Ak-Chin Regional Airport

Closest report is Casa Grande Municipal Airport, 7.9 nm (14.7 km) ESE. Retrieved 2019/12/12 17:56 UTC (23 minutes ago):

KCGZ 121756Z AUTO 00000KT 10SM CLR 13/07 A3028 RMK AO2 SLP253 T01330067 10133 20050 51011

Closest aviation forecast (TAF) to Ak-Chin Regional Airport

Closest forecast is Phoenix-Mesa-Gateway Airport, 23.2 nm (42.9 km) NE. Retrieved 2019/12/12 18:33 UTC (0 seconds ago):

TAF KIWA 121730Z 1218/1318 12005KT P6SM SCT250 FM122000 28004KT P6SM SCT250 FM130300 12004KT P6SM SCT250